Latest Weather Observations for Richmond

IDN60801

Issued at 11:05 pm EST Wednesday 17 September 2014 (issued every 30 minutes, with the page automatically refreshed every 10 minutes)

About weather observations | Map of weather stations | Latest weather observations for NSW | Other Formats
Station Details ID: 067105 Name: RICHMOND RAAF Lat: -33.60 Lon: 150.78 Height: 19.0 m
Data from the previous 72 hours. | See also: Recent months at Richmond
Date/Time
EST
Temp
°C
App
Temp
°C
Dew
Point
Rel
Hum
%
Delta-T
°C
Wind Press
QNH
hPa
Press
MSL
hPa
Rain
since 9 am
mm
Dir
 
Spd
km/h
Gust
km/h
Spd
kts
Gust
kts
17/11:00pm 12.5 8.9 3.2 53 4.1 W 11 15 6 8 1015.3 1015.3 0.0
17/10:30pm 12.5 9.3 2.9 52 4.2 W 9 11 5 6 1015.2 1015.2 0.0
17/10:00pm 14.8 11.3 3.6 47 5.1 WSW 11 20 6 11 1014.9 1014.9 0.0
17/09:30pm 13.5 10.4 3.8 52 4.4 W 9 19 5 10 1014.8 1014.8 0.0
17/09:00pm 13.9 10.8 3.7 50 4.6 WNW 9 15 5 8 1014.7 1014.7 0.0
17/08:30pm 12.8 9.7 3.7 54 4.1 WNW 9 11 5 6 1014.3 1014.3 0.0
17/08:00pm 13.6 10.9 3.7 51 4.5 NW 7 9 4 5 1014.3 1014.3 0.0
17/07:30pm 15.2 12.1 3.7 46 5.3 NW 9 13 5 7 1013.9 1013.9 0.0
17/07:00pm 14.7 10.5 3.8 48 5.0 W 15 20 8 11 1013.5 1013.5 0.0
17/06:30pm 15.1 10.6 4.2 48 5.0 WNW 17 20 9 11 1013.1 1013.1 0.0
17/06:00pm 16.3 11.4 4.0 44 5.7 WNW 19 26 10 14 1012.8 1012.8 0.0
17/05:30pm 17.4 12.8 3.7 40 6.4 NW 17 22 9 12 1012.5 1012.5 0.0
17/05:00pm 18.8 12.1 3.8 37 7.1 WNW 28 39 15 21 1012.2 1012.2 0.0
17/04:30pm 19.7 12.5 3.0 33 7.8 W 30 43 16 23 1011.8 1011.8 0.0
17/04:00pm 19.5 13.8 2.8 33 7.8 W 22 33 12 18 1011.3 1011.3 0.0
17/03:30pm 20.4 13.1 2.3 30 8.4 W 30 41 16 22 1011.0 1011.0 0.0
17/03:00pm 21.3 14.1 3.0 30 8.7 W 30 43 16 23 1010.8 1010.8 0.0
17/02:30pm 20.8 13.1 2.1 29 8.7 W 32 44 17 24 1010.9 1010.9 0.0
17/02:00pm 21.0 13.0 1.8 28 8.9 W 33 44 18 24 1010.8 1010.8 0.0
17/01:35pm 20.8 13.2 2.6 30 8.5 WSW 32 50 17 27 1011.0 1011.0 0.0
17/01:30pm 20.7 12.4 2.0 29 8.6 WSW 35 50 19 27 1011.1 1011.1 0.0
17/01:00pm 20.6 12.7 2.4 30 8.5 W 33 43 18 23 1010.9 1010.9 0.0
17/12:30pm 21.2 14.5 3.4 31 8.5 W 28 50 15 27 1010.8 1010.8 0.0
17/12:28pm 21.2 14.4 3.0 30 8.6 W 28 50 15 27 1010.8 1010.8 0.0
17/12:00pm 21.0 15.7 3.2 31 8.5 W 20 30 11 16 1011.0 1011.0 0.0
17/11:30am 20.4 14.8 3.2 32 8.1 W 22 33 12 18 1011.3 1011.3 0.0
17/11:00am 20.0 14.7 2.8 32 8.0 WSW 20 30 11 16 1011.7 1011.7 0.0
17/10:30am 19.8 13.8 3.1 33 7.8 WSW 24 35 13 19 1012.1 1012.1 0.0
17/10:00am 18.9 13.2 3.1 35 7.4 WSW 22 37 12 20 1012.4 1012.4 0.0
17/09:30am 18.5 11.5 1.9 33 7.5 WSW 28 44 15 24 1012.8 1012.8 0.0
17/09:00am 18.2 12.9 2.9 36 7.1 SW 20 39 11 21 1013.1 1013.1 0.2
17/08:30am 17.4 10.1 2.6 37 6.7 SW 30 39 16 21 1013.1 1013.1 0.2
17/08:00am 16.6 12.0 3.6 42 6.0 WSW 17 32 9 17 1013.0 1013.0 0.2
17/07:30am 16.2 11.8 4.6 46 5.5 WSW 17 22 9 12 1013.1 1013.1 0.2
17/07:00am 15.7 11.2 4.1 46 5.4 WSW 17 22 9 12 1012.7 1012.7 0.2
17/06:30am 14.6 10.5 4.6 51 4.6 W 15 20 8 11 1012.3 1012.3 0.2
17/06:00am 14.3 9.4 4.9 53 4.4 W 20 33 11 18 1012.0 1012.0 0.2
17/05:30am 11.4 8.7 5.7 68 2.6 WNW 9 11 5 6 1011.5 1011.5 0.2
17/05:00am 13.6 10.4 6.7 63 3.3 W 13 19 7 10 1010.9 1010.9 0.2
17/04:30am 12.1 9.7 7.0 71 2.4 WNW 9 13 5 7 1010.4 1010.4 0.2
17/04:00am 10.8 8.2 6.2 73 2.2 N 9 11 5 6 1010.1 1010.1 0.2
17/03:30am 12.5 10.1 7.0 69 2.6 NNW 9 13 5 7 1009.9 1009.9 0.2
17/03:00am 13.0 10.9 6.8 66 3.0 NNW 7 11 4 6 1010.0 1010.0 0.2
17/02:30am 13.0 11.1 6.8 66 3.0 NNW 6 9 3 5 1009.9 1009.9 0.2
17/02:00am 13.2 11.2 7.0 66 3.0 N 7 9 4 5 1010.1 1010.1 0.2
17/01:30am 12.8 10.4 6.8 67 2.9 NNE 9 11 5 6 1009.9 1009.9 0.2
17/01:00am 14.5 12.2 7.5 63 3.5 NNW 9 11 5 6 1009.9 1009.9 0.2
17/12:30am 14.9 11.5 7.5 61 3.7 NNW 15 22 8 12 1010.0 1010.0 0.2
17/12:00am 14.2 11.0 7.0 62 3.5 WNW 13 19 7 10 1010.2 1010.2 0.2
 
Date/Time
EST
Temp
°C
App
Temp
°C
Dew
Point
Rel
Hum
%
Delta-T
°C
Wind Press
QNH
hPa
Press
MSL
hPa
Rain
since 9 am
mm
Dir
 
Spd
km/h
Gust
km/h
Spd
kts
Gust
kts
16/11:30pm 15.0 11.1 7.3 60 3.8 WNW 17 20 9 11 1010.1 1010.1 0.2
16/11:00pm 14.9 11.8 7.2 60 3.8 WNW 13 17 7 9 1010.6 1010.6 0.2
16/10:30pm 16.0 12.2 7.5 57 4.2 WNW 17 20 9 11 1010.6 1010.6 0.2
16/10:00pm 16.6 13.2 7.5 55 4.6 WNW 15 20 8 11 1010.6 1010.6 0.2
16/09:30pm 16.4 12.6 7.6 56 4.4 W 17 24 9 13 1010.6 1010.6 0.2
16/09:00pm 16.0 11.7 7.0 55 4.4 WNW 19 22 10 12 1010.5 1010.5 0.2
16/08:30pm 16.7 11.8 7.1 53 4.8 W 22 32 12 17 1010.5 1010.5 0.2
16/08:00pm 17.4 11.7 6.9 50 5.2 W 26 33 14 18 1010.1 1010.1 0.2
16/07:30pm 17.4 14.0 7.5 52 5.0 WSW 15 20 8 11 1010.1 1010.1 0.2
16/07:00pm 17.8 12.9 7.0 49 5.4 W 22 30 12 16 1009.6 1009.6 0.2
16/06:30pm 18.2 12.6 7.0 48 5.6 W 26 41 14 22 1009.0 1009.0 0.0
16/06:26pm 18.1 12.1 7.2 49 5.5 W 28 46 15 25 1008.9 1008.9 0.0
16/06:18pm 18.4 11.0 6.9 47 5.8 W 35 46 19 25 1008.8 1008.8 0.0
16/06:00pm 18.3 14.5 7.4 49 5.5 W 17 26 9 14 1008.7 1008.7 0.0
16/05:30pm 19.7 11.8 6.4 42 6.7 W 37 48 20 26 1008.0 1008.0 0.0
16/05:23pm 19.9 13.8 6.6 42 6.7 W 28 46 15 25 1007.8 1007.8 0.0
16/05:00pm 20.7 15.1 7.0 41 7.0 W 26 35 14 19 1007.5 1007.5 0.0
16/04:30pm 21.1 16.2 7.0 40 7.2 W 22 35 12 19 1006.9 1006.9 0.0
16/04:00pm 21.6 15.1 6.7 38 7.6 WSW 30 43 16 23 1006.6 1006.6 0.0
16/03:30pm 22.3 16.9 6.5 36 8.1 W 24 35 13 19 1006.1 1006.1 0.0
16/03:00pm 23.5 17.8 6.7 34 8.7 W 26 35 14 19 1005.7 1005.7 0.0
16/02:30pm 23.9 20.2 7.9 36 8.5 WSW 17 26 9 14 1005.5 1005.5 0.0
16/02:00pm 23.7 21.9 10.7 44 7.2 WSW 11 17 6 9 1005.4 1005.4 0.0
16/01:30pm 23.6 22.0 10.3 43 7.3 N 9 20 5 11 1005.3 1005.3 0.0
16/01:00pm 23.5 23.2 13.4 53 5.9 SE 7 11 4 6 1005.9 1005.9 0.0
16/12:30pm 23.7 21.5 13.3 52 6.0 ENE 17 26 9 14 1006.3 1006.3 0.0
16/12:00pm 21.8 18.8 12.6 56 5.2 NE 20 32 11 17 1006.8 1006.8 0.0
16/11:30am 20.4 18.1 12.9 62 4.3 ENE 17 24 9 13 1008.1 1008.1 0.0
16/11:00am 19.8 17.6 13.3 66 3.7 ENE 17 26 9 14 1008.9 1008.9 0.0
16/10:30am 18.6 15.8 12.6 68 3.4 NNE 19 20 10 11 1009.7 1009.7 0.0
16/10:00am 18.1 16.8 13.8 76 2.5 N 13 20 7 11 1010.2 1010.2 0.0
16/09:30am 16.5 15.8 13.2 81 1.8 WSW 9 13 5 7 1010.7 1010.7 0.0
16/09:00am 15.5 15.8 13.3 87 1.2 WNW 4 7 2 4 1010.8 1010.8 0.0
16/08:30am 14.8 15.5 13.5 92 0.7 N 2 7 1 4 1011.0 1011.0 0.0
16/08:00am 14.1 13.6 12.8 92 0.7 SSE 7 13 4 7 1011.3 1011.3 0.0
16/07:30am 14.0 13.1 12.6 91 0.8 SW 9 17 5 9 1011.5 1011.5 0.0
16/07:00am 13.7 12.5 12.9 95 0.4 W 11 17 6 9 1011.8 1011.8 0.0
16/06:30am 12.2 12.7 11.7 97 0.3 CALM 0 6 0 3 1012.0 1012.0 0.0
16/06:00am 12.2 11.4 11.7 97 0.3 NNE 7 9 4 5 1012.0 1012.0 0.0
16/05:30am 12.6 12.4 11.7 94 0.5 WSW 4 6 2 3 1012.2 1012.2 0.0
16/05:00am 12.9 11.5 12.1 95 0.4 WSW 11 15 6 8 1012.4 1012.4 0.0
16/04:30am 12.9 10.7 12.0 94 0.5 ENE 15 20 8 11 1011.8 1011.8 0.0
16/04:15am 13.0 10.1 12.2 95 0.4 E 19 22 10 12 1011.5 1011.5 0.0
16/04:00am 13.2 12.2 12.3 94 0.5 S 9 13 5 7 1013.5 1013.5 0.0
16/03:30am 12.4 11.0 12.1 98 0.2 SW 11 15 6 8 1012.7 1012.7 0.0
16/03:00am 12.0 12.5 11.5 97 0.3 CALM 0 0 0 0 1012.4 1012.4 0.0
16/02:30am 11.9 10.9 11.0 94 0.5 SSW 7 9 4 5 1012.8 1012.8 0.0
16/02:00am 12.5 11.2 11.4 93 0.6 W 9 11 5 6 1013.2 1013.2 0.0
16/01:30am 12.4 11.6 11.0 91 0.7 N 6 9 3 5 1013.5 1013.5 0.0
16/01:00am 13.7 12.2 11.9 89 1.0 E 11 15 6 8 1013.7 1013.7 0.0
16/12:30am 14.0 13.4 12.2 89 1.0 NE 7 9 4 5 1014.5 1014.5 0.0
16/12:00am 14.7 13.0 12.4 86 1.3 E 13 15 7 8 1014.8 1014.8 0.0
 
Date/Time
EST
Temp
°C
App
Temp
°C
Dew
Point
Rel
Hum
%
Delta-T
°C
Wind Press
QNH
hPa
Press
MSL
hPa
Rain
since 9 am
mm
Dir
 
Spd
km/h
Gust
km/h
Spd
kts
Gust
kts
15/11:30pm 15.3 14.7 12.4 83 1.6 W 7 13 4 7 1016.0 1016.0 0.0
15/11:00pm 15.1 15.9 12.6 85 1.4 CALM 0 4 0 2 1015.8 1015.8 0.0
15/10:30pm 15.6 15.0 11.6 77 2.2 E 6 6 3 3 1015.8 1015.8 0.0
15/10:00pm 16.0 16.7 12.2 78 2.1 CALM 0 0 0 0 1015.8 1015.8 0.0
15/09:30pm 15.9 15.2 12.1 78 2.1 ENE 7 9 4 5 1016.0 1016.0 0.0
15/09:00pm 15.8 16.4 11.8 77 2.2 CALM 0 0 0 0 1016.2 1016.2 0.0
15/08:30pm 16.2 15.6 11.8 75 2.4 N 6 7 3 4 1016.3 1016.3 0.0
15/08:00pm 15.9 16.4 11.7 76 2.3 CALM 0 6 0 3 1015.9 1015.9 0.0
15/07:30pm 15.9 15.1 11.7 76 2.3 ENE 7 9 4 5 1015.8 1015.8 0.0
15/07:00pm 16.4 15.6 11.8 74 2.5 ENE 7 15 4 8 1015.5 1015.5 0.0
15/06:30pm 16.6 14.6 11.5 72 2.8 ENE 13 17 7 9 1015.0 1015.0 0.0
15/06:00pm 17.4 14.7 11.7 69 3.1 E 17 22 9 12 1014.7 1014.7 0.0
15/05:30pm 18.3 15.0 11.6 65 3.7 ENE 20 28 11 15 1014.4 1014.4 0.0
15/05:00pm 19.4 16.1 11.7 61 4.3 ENE 20 30 11 16 1014.0 1014.0 0.0
15/04:30pm 20.6 17.0 11.8 57 4.9 E 22 30 12 16 1013.9 1013.9 0.0
15/04:00pm 22.2 20.1 6.8 37 7.9 E 7 13 4 7 1013.7 1013.7 0.0
15/03:30pm 22.2 19.0 6.8 37 7.9 ENE 13 19 7 10 1013.9 1013.9 0.0
15/03:00pm 22.0 19.2 7.0 38 7.7 SSE 11 17 6 9 1013.9 1013.9 0.0
15/02:30pm 21.8 19.4 7.2 39 7.5 SE 9 15 5 8 1014.1 1014.1 0.0
15/02:00pm 22.0 20.1 7.4 39 7.6 ESE 7 13 4 7 1014.4 1014.4 0.0
15/01:30pm 21.5 18.4 7.3 40 7.3 SE 13 20 7 11 1014.8 1014.8 0.0
15/01:00pm 21.1 18.4 7.3 41 7.1 SE 11 24 6 13 1015.1 1015.1 0.0
15/12:30pm 20.8 18.2 7.8 43 6.7 ENE 11 20 6 11 1015.7 1015.7 0.0
15/12:00pm 20.3 18.2 8.3 46 6.2 SSE 9 15 5 8 1016.1 1016.1 0.0
15/11:30am 20.2 18.1 9.7 51 5.6 E 11 19 6 10 1016.7 1016.7 0.0
15/11:00am 19.5 17.8 10.0 54 5.1 SE 9 17 5 9 1017.1 1017.1 0.0
15/10:30am 19.2 17.4 12.0 63 4.0 NNE 13 22 7 12 1017.5 1017.5 0.0
15/10:00am 18.5 17.4 11.8 65 3.7 E 9 17 5 9 1017.7 1017.7 0.0
15/09:30am 17.8 17.2 11.6 67 3.4 ENE 6 13 3 7 1018.2 1018.2 0.0
15/09:00am 16.6 16.0 11.7 73 2.7 NNE 6 9 3 5 1018.6 1018.6 0.2
15/08:30am 15.4 14.5 11.4 77 2.1 NNE 7 9 4 5 1018.8 1018.8 0.2
15/08:00am 14.7 15.3 12.0 84 1.5 CALM 0 0 0 0 1019.0 1019.0 0.2
15/07:30am 12.5 12.9 11.4 93 0.6 CALM 0 0 0 0 1019.0 1019.0 0.2
15/07:00am 11.6 12.0 11.3 98 0.2 CALM 0 6 0 3 1018.8 1018.8 0.2
15/06:53am 11.4 10.6 11.1 98 0.2 N 6 9 3 5 1018.8 1018.8 0.2
15/06:30am 9.7 8.8 9.4 98 0.1 NNW 4 7 2 4 1018.8 1018.8 0.2
15/06:18am 9.8 8.6 9.5 98 0.1 NNW 6 7 3 4 1018.8 1018.8 0.2
15/06:15am 10.0 8.8 9.7 98 0.2 NNW 6 7 3 4 1018.8 1018.8 0.2
15/06:02am 10.3 10.4 10.0 98 0.2 CALM 0 0 0 0 1018.7 1018.7 0.2
15/06:00am 10.3 10.4 10.0 98 0.2 CALM 0 0 0 0 1018.7 1018.7 0.2
15/05:30am 10.8 11.0 10.5 98 0.2 CALM 0 0 0 0 1018.2 1018.2 0.2
15/05:00am 10.0 10.0 9.7 98 0.1 CALM 0 0 0 0 1018.2 1018.2 0.2
15/04:30am 11.0 11.2 10.7 98 0.2 CALM 0 0 0 0 1018.0 1018.0 0.2
15/04:22am 10.7 10.8 10.2 97 0.3 CALM 0 0 0 0 1018.1 1018.1 0.2
15/04:00am 10.8 10.5 10.2 96 0.3 NW 2 6 1 3 1018.2 1018.2 0.2
15/03:30am 10.7 10.8 10.1 96 0.3 CALM 0 0 0 0 1018.0 1018.0 0.2
15/03:00am 11.2 11.4 10.7 97 0.3 CALM 0 4 0 2 1018.1 1018.1 0.2
15/02:42am 11.4 10.6 11.1 98 0.2 NNW 6 6 3 3 1018.2 1018.2 0.2
15/02:30am 11.3 11.3 11.0 98 0.2 N 2 7 1 4 1018.3 1018.3 0.2
15/02:22am 11.0 11.2 10.5 97 0.3 CALM 0 0 0 0 1018.3 1018.3 0.2
15/02:11am 10.6 10.6 9.8 95 0.4 CALM 0 0 0 0 1018.4 1018.4 0.2
15/02:00am 11.1 11.3 10.5 96 0.3 CALM 0 0 0 0 1018.4 1018.4 0.2
15/01:44am 11.3 11.5 10.5 95 0.4 CALM 0 0 0 0 1018.4 1018.4 0.2
15/01:30am 11.8 12.1 11.0 95 0.4 CALM 0 0 0 0 1018.5 1018.5 0.2
15/01:00am 12.2 12.6 11.3 94 0.5 CALM 0 6 0 3 1018.8 1018.8 0.2
15/12:30am 12.6 13.1 11.7 94 0.5 CALM 0 0 0 0 1019.1 1019.1 0.2
15/12:00am 12.0 11.9 10.7 92 0.7 WSW 2 6 1 3 1019.3 1019.3 0.2
 
Date/Time
EST
Temp
°C
App
Temp
°C
Dew
Point
Rel
Hum
%
Delta-T
°C
Wind Press
QNH
hPa
Press
MSL
hPa
Rain
since 9 am
mm
Dir
 
Spd
km/h
Gust
km/h
Spd
kts
Gust
kts
14/11:30pm 12.3 11.5 10.9 91 0.7 WSW 6 7 3 4 1019.4 1019.4 0.2

Other Formats:

Comma delimited format used in spreadsheet applications
http://www.bom.gov.au/fwo/IDN60801/IDN60801.95753.axf

JavaScript Object Notation format (JSON) in row-major order
http://www.bom.gov.au/fwo/IDN60801/IDN60801.95753.json